Time;durP1;ratioP1;P1;durP2;ratioP2;P2;SDS_P1;SDS_P2;PMS_P1;PMS_P2;Temp;Humidity;BMP_temperature;BMP_pressure;BME280_temperature;BME280_humidity;BME280_pressure;Samples;Min_cycle;Max_cycle;Signal;HPM_P1;HPM_P2
2022/01/12 00:00:48;;;;;;;3.93;2.90;;;;;;;;;;4922946;29;20275;-88
2022/01/12 00:03:31;;;;;;;6.37;3.10;;;;;;;;;;4922904;29;20203;-88
2022/01/12 00:06:04;;;;;;;4.80;3.20;;;;;;;;;;4914386;29;20238;-89
2022/01/12 00:17:27;;;;;;;3.00;1.93;;;;;;;;;;4919479;29;20268;-89
2022/01/12 00:23:40;;;;;;;;;;;;;;;;;;;;;
2022/01/12 01:27:14;;;;;;;;;;;;;;;;;;;;;
2022/01/12 01:30:01;;;;;;;3.77;2.63;;;;;;;;;;4910170;29;20230;-90
2022/01/12 01:32:52;;;;;;;5.57;2.67;;;;;;;;;;4917354;29;20266;-90
2022/01/12 01:38:16;;;;;;;4.73;3.07;;;;;;;;;;4902505;29;20230;-90
2022/01/12 01:40:56;;;;;;;3.13;2.83;;;;;;;;;;4919758;29;20241;-90
2022/01/12 01:43:41;;;;;;;3.90;3.10;;;;;;;;;;4915044;29;20210;-90
2022/01/12 01:54:34;;;;;;;5.20;3.37;;;;;;;;;;4917026;29;20350;-90
2022/01/12 01:57:02;;;;;;;5.83;3.20;;;;;;;;;;4919497;29;20309;-89
2022/01/12 01:59:32;;;;;;;4.63;3.60;;;;;;;;;;4918432;29;20270;-90
2022/01/12 02:02:02;;;;;;;6.03;4.20;;;;;;;;;;4916184;29;20648;-90
2022/01/12 02:04:30;;;;;;;7.50;3.77;;;;;;;;;;4914468;29;20195;-90
2022/01/12 02:07:00;;;;;;;4.70;3.50;;;;;;;;;;4920928;29;20729;-90
2022/01/12 02:09:29;;;;;;;4.60;2.87;;;;;;;;;;4914416;29;20257;-90
2022/01/12 02:11:58;;;;;;;3.70;3.10;;;;;;;;;;4919398;29;20211;-89
2022/01/12 02:14:26;;;;;;;4.67;3.20;;;;;;;;;;4920490;29;20217;-90
2022/01/12 02:17:01;;;;;;;3.83;3.33;;;;;;;;;;4921028;29;20285;-89
2022/01/12 02:19:51;;;;;;;4.00;3.30;;;;;;;;;;4910488;29;20214;-90
2022/01/12 02:36:14;;;;;;;6.17;3.60;;;;;;;;;;4911695;29;20233;-90
2022/01/12 02:41:27;;;;;;;5.63;3.90;;;;;;;;;;4919722;29;20239;-90
2022/01/12 02:54:56;;;;;;;6.27;4.17;;;;;;;;;;4907742;29;20615;-90
2022/01/12 02:57:24;;;;;;;4.87;3.57;;;;;;;;;;4918533;29;20230;-90
2022/01/12 03:00:04;;;;;;;9.03;5.13;;;;;;;;;;4918949;29;20242;-90
2022/01/12 03:02:34;;;;;;;6.40;4.33;;;;;;;;;;4915091;29;20207;-89
2022/01/12 03:05:20;;;;;;;5.40;4.23;;;;;;;;;;4916168;29;20270;-90
2022/01/12 03:07:48;;;;;;;4.83;3.63;;;;;;;;;;4906967;29;20234;-91
2022/01/12 03:10:17;;;;;;;7.07;5.00;;;;;;;;;;4912760;29;20298;-90
2022/01/12 03:12:45;;;;;;;5.63;4.53;;;;;;;;;;4918023;29;20629;-90
2022/01/12 03:15:13;;;;;;;6.43;4.93;;;;;;;;;;4918091;29;20220;-90
2022/01/12 03:17:40;;;;;;;7.47;5.23;;;;;;;;;;4913998;29;20596;-90
2022/01/12 03:20:08;;;;;;;5.77;4.83;;;;;;;;;;4916604;29;20591;-90
2022/01/12 03:22:36;;;;;;;6.63;4.53;;;;;;;;;;4920624;29;20210;-90
2022/01/12 03:25:03;;;;;;;7.07;4.30;;;;;;;;;;4921647;29;20214;-90
2022/01/12 03:27:32;;;;;;;5.17;4.37;;;;;;;;;;4919679;29;20230;-90
2022/01/12 03:29:59;;;;;;;8.53;5.67;;;;;;;;;;4914810;29;20269;-90
2022/01/12 03:32:33;;;;;;;5.37;4.07;;;;;;;;;;4921501;29;20202;-90
2022/01/12 03:35:10;;;;;;;6.13;4.20;;;;;;;;;;4921419;29;20269;-90
2022/01/12 03:37:43;;;;;;;8.07;5.00;;;;;;;;;;4910887;29;20230;-90
2022/01/12 03:40:11;;;;;;;8.90;5.10;;;;;;;;;;4920723;29;20640;-90
2022/01/12 03:42:40;;;;;;;6.80;5.10;;;;;;;;;;4920938;29;20221;-90
2022/01/12 03:45:08;;;;;;;6.27;4.70;;;;;;;;;;4912139;29;20210;-91
2022/01/12 03:47:35;;;;;;;9.67;4.90;;;;;;;;;;4917799;29;20223;-90
2022/01/12 03:50:02;;;;;;;6.80;4.33;;;;;;;;;;4920728;29;20210;-90
2022/01/12 03:52:30;;;;;;;6.43;4.47;;;;;;;;;;4921010;29;20262;-91
2022/01/12 03:54:57;;;;;;;6.20;4.23;;;;;;;;;;4908973;29;20207;-90
2022/01/12 03:57:25;;;;;;;6.20;5.20;;;;;;;;;;4916994;29;20226;-91
2022/01/12 03:59:53;;;;;;;7.77;4.73;;;;;;;;;;4920368;29;20245;-90
2022/01/12 04:02:21;;;;;;;5.70;4.00;;;;;;;;;;4920118;29;20620;-91
2022/01/12 04:10:14;;;;;;;8.80;5.27;;;;;;;;;;4919792;29;20204;-90
2022/01/12 04:12:42;;;;;;;6.73;4.50;;;;;;;;;;4917369;29;20266;-91
2022/01/12 04:15:10;;;;;;;9.33;5.77;;;;;;;;;;4910101;29;20695;-91
2022/01/12 04:17:38;;;;;;;8.40;5.10;;;;;;;;;;4919068;29;20226;-91
2022/01/12 04:20:06;;;;;;;8.43;5.27;;;;;;;;;;4919847;29;20218;-91
2022/01/12 04:25:18;;;;;;;6.20;4.40;;;;;;;;;;4912198;29;20236;-90
2022/01/12 04:27:45;;;;;;;4.80;4.20;;;;;;;;;;4918743;29;20253;-91
2022/01/12 04:30:14;;;;;;;8.10;4.60;;;;;;;;;;4919298;29;20744;-91
2022/01/12 04:32:43;;;;;;;5.63;4.33;;;;;;;;;;4911594;29;20230;-90
2022/01/12 04:35:11;;;;;;;5.47;4.50;;;;;;;;;;4913648;29;20301;-91
2022/01/12 04:37:38;;;;;;;8.03;5.53;;;;;;;;;;4918944;29;20245;-91
2022/01/12 04:40:06;;;;;;;7.37;5.40;;;;;;;;;;4916385;29;20222;-91
2022/01/12 04:42:35;;;;;;;6.93;4.97;;;;;;;;;;4908235;29;20263;-90
2022/01/12 04:45:03;;;;;;;5.07;4.57;;;;;;;;;;4918233;29;20207;-90
2022/01/12 04:47:57;;;;;;;6.37;4.73;;;;;;;;;;4918726;29;20230;-91
2022/01/12 04:50:25;;;;;;;5.73;4.00;;;;;;;;;;4906362;29;20211;-91
2022/01/12 04:52:53;;;;;;;4.87;4.20;;;;;;;;;;4915499;29;20219;-90
2022/01/12 04:55:20;;;;;;;6.33;4.57;;;;;;;;;;4918865;29;20210;-91
2022/01/12 04:57:47;;;;;;;9.77;5.33;;;;;;;;;;4911171;29;20251;-91
2022/01/12 05:00:18;;;;;;;7.13;5.50;;;;;;;;;;4910350;29;20215;-90
2022/01/12 05:08:20;;;;;;;6.57;5.20;;;;;;;;;;4904756;29;20241;-91
2022/01/12 05:13:33;;;;;;;4.43;3.83;;;;;;;;;;4918060;29;20655;-90
2022/01/12 05:16:01;;;;;;;7.00;4.17;;;;;;;;;;4907355;29;20207;-91
2022/01/12 05:18:30;;;;;;;7.80;4.20;;;;;;;;;;4917462;29;20779;-91
2022/01/12 05:20:57;;;;;;;5.57;3.83;;;;;;;;;;4908589;29;20278;-90
2022/01/12 05:23:25;;;;;;;6.90;4.67;;;;;;;;;;4911141;29;20246;-91
2022/01/12 05:25:53;;;;;;;6.63;4.53;;;;;;;;;;4917285;29;20230;-91
2022/01/12 05:28:20;;;;;;;6.27;5.30;;;;;;;;;;4917288;29;20751;-91
2022/01/12 05:30:48;;;;;;;6.87;5.07;;;;;;;;;;4915508;29;20648;-90
2022/01/12 05:33:16;;;;;;;7.30;4.97;;;;;;;;;;4906731;29;20210;-91
2022/01/12 05:35:45;;;;;;;8.50;5.47;;;;;;;;;;4917981;29;20255;-90
2022/01/12 05:38:14;;;;;;;7.30;5.40;;;;;;;;;;4917822;29;20226;-91
2022/01/12 05:40:43;;;;;;;6.23;4.80;;;;;;;;;;4911080;29;20211;-91
2022/01/12 05:43:21;;;;;;;6.37;4.30;;;;;;;;;;4904915;29;20203;-91
2022/01/12 05:45:49;;;;;;;6.83;5.07;;;;;;;;;;4911953;29;20211;-89
2022/01/12 05:51:03;;;;;;;7.73;5.53;;;;;;;;;;4917598;29;20205;-91
2022/01/12 05:53:36;;;;;;;7.90;5.77;;;;;;;;;;4906452;29;20207;-91
2022/01/12 05:56:04;;;;;;;9.57;6.47;;;;;;;;;;4908427;29;20206;-91
2022/01/12 05:58:31;;;;;;;8.57;5.80;;;;;;;;;;4916700;29;20699;-91
2022/01/12 06:00:58;;;;;;;8.20;5.53;;;;;;;;;;4917336;29;20210;-91
2022/01/12 06:03:26;;;;;;;6.03;4.80;;;;;;;;;;4914384;29;20270;-91
2022/01/12 06:05:54;;;;;;;6.50;4.97;;;;;;;;;;4915275;29;20289;-91
2022/01/12 06:08:22;;;;;;;9.73;7.03;;;;;;;;;;4917121;29;20238;-90
2022/01/12 06:10:50;;;;;;;7.13;5.57;;;;;;;;;;4917077;29;20627;-91
2022/01/12 06:13:17;;;;;;;8.27;5.40;;;;;;;;;;4914340;29;20199;-91
2022/01/12 06:15:44;;;;;;;8.53;5.77;;;;;;;;;;4913890;29;20298;-91
2022/01/12 06:18:11;;;;;;;7.77;6.07;;;;;;;;;;4914285;29;20612;-91
2022/01/12 06:20:39;;;;;;;9.47;6.03;;;;;;;;;;4905016;29;20258;-91
2022/01/12 06:23:06;;;;;;;6.73;5.33;;;;;;;;;;4916292;29;20211;-91
2022/01/12 06:25:35;;;;;;;6.87;5.30;;;;;;;;;;4916985;29;20233;-91
2022/01/12 06:28:22;;;;;;;8.93;5.27;;;;;;;;;;4914119;29;20222;-91
2022/01/12 06:33:34;;;;;;;7.23;5.93;;;;;;;;;;4916595;29;20554;-91
2022/01/12 06:36:01;;;;;;;8.13;5.60;;;;;;;;;;4916951;29;20207;-91
2022/01/12 06:38:29;;;;;;;9.87;6.33;;;;;;;;;;4904692;29;20223;-91
2022/01/12 06:40:57;;;;;;;9.27;6.10;;;;;;;;;;4911402;29;20671;-91
2022/01/12 06:43:27;;;;;;;7.37;5.90;;;;;;;;;;4916113;29;20207;-90
2022/01/12 06:45:55;;;;;;;10.73;7.37;;;;;;;;;;4906995;29;20231;-91
2022/01/12 06:48:22;;;;;;;11.43;6.33;;;;;;;;;;4898748;29;20693;-90
2022/01/12 06:50:50;;;;;;;7.40;5.83;;;;;;;;;;4912609;29;20207;-91
2022/01/12 06:53:21;;;;;;;9.37;6.97;;;;;;;;;;4921510;29;20206;-92
2022/01/12 06:55:48;;;;;;;10.77;6.40;;;;;;;;;;4913585;29;20277;-92
2022/01/12 06:58:55;;;;;;;8.13;6.00;;;;;;;;;;4913809;29;20253;-91
2022/01/12 07:01:26;;;;;;;6.37;5.23;;;;;;;;;;4916089;29;20217;-92
2022/01/12 07:03:56;;;;;;;8.73;6.07;;;;;;;;;;4911072;29;20211;-92
2022/01/12 07:06:24;;;;;;;9.70;6.73;;;;;;;;;;4911588;29;20298;-92
2022/01/12 07:08:52;;;;;;;10.27;6.50;;;;;;;;;;4915785;29;20222;-92
2022/01/12 07:11:26;;;;;;;7.00;5.33;;;;;;;;;;4916359;29;20298;-92
2022/01/12 07:17:12;;;;;;;9.70;6.27;;;;;;;;;;4850503;29;20603;-92
2022/01/12 07:19:42;;;;;;;7.73;5.67;;;;;;;;;;4915683;29;20723;-92
2022/01/12 07:22:10;;;;;;;7.50;5.07;;;;;;;;;;4915685;29;20211;-92
2022/01/12 07:24:39;;;;;;;10.07;4.70;;;;;;;;;;4910198;29;20286;-92
2022/01/12 07:27:07;;;;;;;9.17;5.27;;;;;;;;;;4918993;29;20242;-93
2022/01/12 07:29:35;;;;;;;9.60;6.40;;;;;;;;;;4915729;29;20234;-92
2022/01/12 07:32:02;;;;;;;8.00;5.70;;;;;;;;;;4918229;29;20211;-93
2022/01/12 07:34:34;;;;;;;10.97;6.40;;;;;;;;;;4915019;29;20214;-92
2022/01/12 07:37:02;;;;;;;10.83;7.00;;;;;;;;;;4915224;29;20226;-93
2022/01/12 07:39:32;;;;;;;10.33;6.53;;;;;;;;;;4916409;29;20215;-92
2022/01/12 07:42:03;;;;;;;10.53;6.60;;;;;;;;;;4912162;29;20565;-93
2022/01/12 07:44:35;;;;;;;8.43;5.33;;;;;;;;;;4913567;29;20219;-90
2022/01/12 07:47:06;;;;;;;9.23;6.70;;;;;;;;;;4915127;29;20237;-90
2022/01/12 07:49:36;;;;;;;13.50;7.07;;;;;;;;;;4915343;29;20230;-90
2022/01/12 07:52:05;;;;;;;8.00;5.47;;;;;;;;;;4907661;29;20624;-91
2022/01/12 07:54:32;;;;;;;10.83;6.43;;;;;;;;;;4916098;29;20300;-90
2022/01/12 07:57:00;;;;;;;13.17;6.93;;;;;;;;;;4915620;29;20238;-91
2022/01/12 07:59:30;;;;;;;10.10;6.17;;;;;;;;;;4905081;29;20207;-90
2022/01/12 08:02:00;;;;;;;27.60;13.07;;;;;;;;;;4915812;29;20218;-91
2022/01/12 08:04:33;;;;;;;10.23;7.17;;;;;;;;;;4919665;29;20215;-91
2022/01/12 08:07:07;;;;;;;10.33;6.23;;;;;;;;;;4915419;29;20322;-91
2022/01/12 08:09:35;;;;;;;12.63;6.57;;;;;;;;;;4917078;29;20230;-91
2022/01/12 08:12:18;;;;;;;13.83;6.87;;;;;;;;;;4916757;29;20252;-90
2022/01/12 08:14:45;;;;;;;11.80;7.93;;;;;;;;;;4908130;29;20222;-91
2022/01/12 08:17:13;;;;;;;16.50;8.97;;;;;;;;;;4918192;29;20230;-91
2022/01/12 08:19:40;;;;;;;10.07;7.67;;;;;;;;;;4919185;29;20211;-91
2022/01/12 08:22:09;;;;;;;10.83;7.10;;;;;;;;;;4915195;29;20235;-91
2022/01/12 08:24:36;;;;;;;13.00;8.10;;;;;;;;;;4914575;29;20579;-90
2022/01/12 08:27:03;;;;;;;11.50;7.47;;;;;;;;;;4919425;29;20235;-90
2022/01/12 08:29:30;;;;;;;14.10;8.07;;;;;;;;;;4918885;29;20226;-89
2022/01/12 08:31:58;;;;;;;12.83;8.03;;;;;;;;;;4908527;29;20219;-91
2022/01/12 08:34:26;;;;;;;11.37;7.53;;;;;;;;;;4918266;29;20202;-90
2022/01/12 08:36:53;;;;;;;11.07;8.60;;;;;;;;;;4918670;29;20233;-91
2022/01/12 08:39:22;;;;;;;12.30;7.37;;;;;;;;;;4911671;29;20212;-91
2022/01/12 08:41:49;;;;;;;12.77;9.47;;;;;;;;;;4916738;29;20282;-91
2022/01/12 08:44:17;;;;;;;14.03;9.40;;;;;;;;;;4910587;29;20266;-91
2022/01/12 08:46:45;;;;;;;13.37;9.00;;;;;;;;;;4913943;29;20237;-92
2022/01/12 08:49:13;;;;;;;11.90;8.73;;;;;;;;;;4916364;29;20270;-91
2022/01/12 08:51:40;;;;;;;12.87;9.33;;;;;;;;;;4897833;29;20724;-91
2022/01/12 08:54:08;;;;;;;14.63;9.90;;;;;;;;;;4914470;29;20271;-91
2022/01/12 08:56:37;;;;;;;13.73;9.87;;;;;;;;;;4915683;29;20198;-90
2022/01/12 08:59:04;;;;;;;15.03;10.33;;;;;;;;;;4915600;29;20290;-90
2022/01/12 09:01:32;;;;;;;14.83;9.53;;;;;;;;;;4913921;29;20233;-91
2022/01/12 09:03:59;;;;;;;14.43;10.30;;;;;;;;;;4909898;29;20215;-90
2022/01/12 09:06:26;;;;;;;14.07;10.20;;;;;;;;;;4915165;29;20628;-91
2022/01/12 09:08:53;;;;;;;14.90;11.03;;;;;;;;;;4915887;29;20273;-90
2022/01/12 09:11:21;;;;;;;13.17;9.33;;;;;;;;;;4913715;29;20301;-92
2022/01/12 09:13:50;;;;;;;15.27;10.00;;;;;;;;;;4908608;29;20290;-90
2022/01/12 09:16:20;;;;;;;16.93;10.10;;;;;;;;;;4916142;29;20211;-90
2022/01/12 09:18:47;;;;;;;16.33;9.63;;;;;;;;;;4916442;29;20203;-91
2022/01/12 09:21:15;;;;;;;13.67;9.67;;;;;;;;;;4904078;29;20625;-90
2022/01/12 09:23:45;;;;;;;13.83;10.03;;;;;;;;;;4914917;29;20656;-90
2022/01/12 09:26:12;;;;;;;14.03;9.07;;;;;;;;;;4914666;29;20289;-90
2022/01/12 09:28:42;;;;;;;13.30;9.30;;;;;;;;;;4911948;29;20234;-91
2022/01/12 09:31:11;;;;;;;15.67;9.57;;;;;;;;;;4913027;29;20223;-89
2022/01/12 09:33:39;;;;;;;14.30;10.50;;;;;;;;;;4914864;29;20352;-90
2022/01/12 09:36:06;;;;;;;13.17;9.70;;;;;;;;;;4914225;29;20211;-91
2022/01/12 09:38:34;;;;;;;14.27;9.13;;;;;;;;;;4909436;29;20259;-90
2022/01/12 09:41:02;;;;;;;14.23;9.70;;;;;;;;;;4914541;29;20219;-90
2022/01/12 09:43:33;;;;;;;11.27;8.70;;;;;;;;;;4914768;29;20299;-90
2022/01/12 09:46:00;;;;;;;16.83;10.03;;;;;;;;;;4913876;29;20210;-93
2022/01/12 09:48:33;;;;;;;12.80;9.20;;;;;;;;;;4905899;29;20293;-89
2022/01/12 09:51:04;;;;;;;14.33;9.57;;;;;;;;;;4918412;29;20304;-89
2022/01/12 09:53:31;;;;;;;12.10;8.40;;;;;;;;;;4915540;29;20645;-90
2022/01/12 09:55:58;;;;;;;13.23;9.20;;;;;;;;;;4910228;29;20604;-90
2022/01/12 09:58:26;;;;;;;11.63;8.00;;;;;;;;;;4914487;29;20222;-90
2022/01/12 10:00:57;;;;;;;10.00;8.07;;;;;;;;;;4915343;29;20588;-89
2022/01/12 10:03:25;;;;;;;10.03;7.67;;;;;;;;;;4908004;29;20210;-90
2022/01/12 10:05:54;;;;;;;10.17;7.57;;;;;;;;;;4909702;29;20214;-90
2022/01/12 10:08:21;;;;;;;11.60;8.37;;;;;;;;;;4914132;29;20230;-89
2022/01/12 10:11:02;;;;;;;10.97;7.80;;;;;;;;;;4914334;29;20665;-91
2022/01/12 10:13:29;;;;;;;10.80;6.83;;;;;;;;;;4907506;29;20210;-90
2022/01/12 10:15:56;;;;;;;10.50;7.03;;;;;;;;;;4914566;29;20214;-89
2022/01/12 10:18:24;;;;;;;11.83;7.80;;;;;;;;;;4913959;29;20274;-89
2022/01/12 10:20:52;;;;;;;11.03;7.63;;;;;;;;;;4909141;29;20214;-91
2022/01/12 10:23:24;;;;;;;12.80;8.97;;;;;;;;;;4914020;29;20262;-90
2022/01/12 10:25:51;;;;;;;11.23;6.97;;;;;;;;;;4914232;29;20218;-89
2022/01/12 10:28:26;;;;;;;14.53;9.47;;;;;;;;;;4911335;29;20235;-89
2022/01/12 10:30:54;;;;;;;10.20;7.30;;;;;;;;;;4913316;29;20222;-89
2022/01/12 10:33:24;;;;;;;13.37;7.17;;;;;;;;;;4914305;29;20290;-92
2022/01/12 10:35:55;;;;;;;11.20;7.60;;;;;;;;;;4914530;29;20274;-89
2022/01/12 10:38:24;;;;;;;8.47;7.23;;;;;;;;;;4912486;29;20258;-89
2022/01/12 10:40:53;;;;;;;9.60;7.43;;;;;;;;;;4913480;29;20218;-89
2022/01/12 10:43:27;;;;;;;7.63;6.17;;;;;;;;;;4913844;29;20695;-90
2022/01/12 10:45:54;;;;;;;7.70;6.10;;;;;;;;;;4911007;29;20215;-90
2022/01/12 10:48:23;;;;;;;9.33;7.07;;;;;;;;;;4911765;29;20283;-89
2022/01/12 10:50:57;;;;;;;9.50;7.77;;;;;;;;;;4905812;29;20245;-89
2022/01/12 10:53:31;;;;;;;10.60;7.03;;;;;;;;;;4901645;29;20274;-90
2022/01/12 10:56:05;;;;;;;9.17;6.77;;;;;;;;;;4905368;29;20215;-90
2022/01/12 10:58:33;;;;;;;12.97;7.20;;;;;;;;;;4913922;29;20222;-91
2022/01/12 11:01:00;;;;;;;9.90;6.70;;;;;;;;;;4913707;29;20212;-88
2022/01/12 11:03:28;;;;;;;8.47;6.43;;;;;;;;;;4912618;29;20269;-89
2022/01/12 11:05:56;;;;;;;10.80;7.37;;;;;;;;;;4913392;29;20207;-92
2022/01/12 11:08:25;;;;;;;9.77;6.90;;;;;;;;;;4914072;29;20965;-89
2022/01/12 11:10:54;;;;;;;10.60;7.23;;;;;;;;;;4913395;29;20253;-89
2022/01/12 11:13:22;;;;;;;9.90;7.13;;;;;;;;;;4909937;29;20257;-89
2022/01/12 11:15:49;;;;;;;9.73;7.87;;;;;;;;;;4910925;29;20246;-93
2022/01/12 11:18:17;;;;;;;10.93;6.77;;;;;;;;;;4913009;29;20265;-89
2022/01/12 11:20:46;;;;;;;10.70;7.73;;;;;;;;;;4913665;29;20210;-89
2022/01/12 11:23:14;;;;;;;10.60;6.97;;;;;;;;;;4912581;29;20667;-89
2022/01/12 11:25:42;;;;;;;11.87;7.27;;;;;;;;;;4913161;29;20348;-89
2022/01/12 11:28:12;;;;;;;10.00;7.57;;;;;;;;;;4912942;29;20230;-88
2022/01/12 11:30:40;;;;;;;9.57;6.70;;;;;;;;;;4913378;29;20234;-93
2022/01/12 11:33:10;;;;;;;9.80;6.97;;;;;;;;;;4911939;29;20274;-89
2022/01/12 11:35:40;;;;;;;12.10;7.00;;;;;;;;;;4912993;29;20277;-89
2022/01/12 11:38:08;;;;;;;10.27;7.33;;;;;;;;;;4915500;29;20281;-89
2022/01/12 11:40:37;;;;;;;9.83;7.00;;;;;;;;;;4906136;29;20656;-89
2022/01/12 11:43:05;;;;;;;11.03;7.97;;;;;;;;;;4911391;29;20274;-89
2022/01/12 11:45:34;;;;;;;12.00;7.60;;;;;;;;;;4916911;29;20225;-89
2022/01/12 11:48:01;;;;;;;10.67;7.77;;;;;;;;;;4907913;29;20246;-91
2022/01/12 11:50:33;;;;;;;10.23;7.30;;;;;;;;;;4916450;29;20715;-90
2022/01/12 11:53:00;;;;;;;10.17;7.03;;;;;;;;;;4913201;29;20200;-88
2022/01/12 11:55:32;;;;;;;10.23;7.33;;;;;;;;;;4902076;29;20664;-89
2022/01/12 11:58:03;;;;;;;10.23;6.60;;;;;;;;;;4915994;29;20274;-91
2022/01/12 12:00:33;;;;;;;8.73;6.60;;;;;;;;;;4917136;29;20198;-89
2022/01/12 12:03:05;;;;;;;10.03;7.07;;;;;;;;;;4916423;29;20335;-88
2022/01/12 12:05:34;;;;;;;9.20;7.13;;;;;;;;;;4913152;29;20622;-89
2022/01/12 12:08:04;;;;;;;10.80;7.23;;;;;;;;;;4915888;29;20226;-89
2022/01/12 12:10:43;;;;;;;10.17;7.13;;;;;;;;;;4916294;29;20579;-89
2022/01/12 12:13:11;;;;;;;9.23;7.13;;;;;;;;;;4908629;29;20206;-93
2022/01/12 12:15:39;;;;;;;10.33;6.93;;;;;;;;;;4915400;29;20269;-89
2022/01/12 12:18:07;;;;;;;8.57;6.23;;;;;;;;;;4915830;29;20231;-89
2022/01/12 12:20:36;;;;;;;7.57;6.20;;;;;;;;;;4912041;29;20255;-90
2022/01/12 12:23:04;;;;;;;8.10;6.27;;;;;;;;;;4905061;29;20340;-89
2022/01/12 12:25:33;;;;;;;9.30;7.17;;;;;;;;;;4913671;29;20942;-89
2022/01/12 12:28:01;;;;;;;9.93;7.47;;;;;;;;;;4915307;29;20257;-89
2022/01/12 12:30:29;;;;;;;10.53;6.47;;;;;;;;;;4916478;29;20230;-92
2022/01/12 12:32:58;;;;;;;10.13;6.83;;;;;;;;;;4905532;29;20211;-90
2022/01/12 12:35:28;;;;;;;11.60;7.83;;;;;;;;;;4915520;29;20293;-89
2022/01/12 12:37:56;;;;;;;10.83;7.17;;;;;;;;;;4914814;29;20231;-89
2022/01/12 12:40:24;;;;;;;10.33;6.20;;;;;;;;;;4913646;29;20214;-89
2022/01/12 12:43:02;;;;;;;11.77;7.67;;;;;;;;;;4912331;29;20297;-89
2022/01/12 12:45:39;;;;;;;10.17;7.67;;;;;;;;;;4916766;29;20266;-89
2022/01/12 12:48:06;;;;;;;12.47;7.07;;;;;;;;;;4917711;29;20330;-90
2022/01/12 12:50:36;;;;;;;8.27;6.97;;;;;;;;;;4912370;29;20302;-88
2022/01/12 12:53:03;;;;;;;10.63;6.67;;;;;;;;;;4912191;29;20218;-89
2022/01/12 12:55:35;;;;;;;8.63;6.83;;;;;;;;;;4915651;29;20206;-89
2022/01/12 12:58:03;;;;;;;8.20;5.50;;;;;;;;;;4914906;29;20258;-90
2022/01/12 13:00:32;;;;;;;7.40;5.67;;;;;;;;;;4917976;29;20211;-88
2022/01/12 13:03:00;;;;;;;9.23;6.33;;;;;;;;;;4916505;29;20218;-89
2022/01/12 13:05:28;;;;;;;10.10;7.40;;;;;;;;;;4920697;29;20237;-88
2022/01/12 13:07:57;;;;;;;10.53;7.50;;;;;;;;;;4915217;29;20751;-92
2022/01/12 13:10:25;;;;;;;11.97;8.03;;;;;;;;;;4913856;29;20207;-89
2022/01/12 13:12:54;;;;;;;8.83;6.87;;;;;;;;;;4914892;29;20254;-89
2022/01/12 13:15:23;;;;;;;9.80;7.60;;;;;;;;;;4915002;29;20238;-91
2022/01/12 13:17:58;;;;;;;10.17;7.47;;;;;;;;;;4914959;29;20230;-89
2022/01/12 13:23:12;;;;;;;10.37;7.03;;;;;;;;;;4917945;29;20281;-92
2022/01/12 13:25:40;;;;;;;9.83;7.47;;;;;;;;;;4911447;29;20223;-89
2022/01/12 13:28:07;;;;;;;10.93;7.60;;;;;;;;;;4913291;29;20238;-89
2022/01/12 13:30:35;;;;;;;13.97;7.60;;;;;;;;;;4913977;29;20214;-88
2022/01/12 13:33:03;;;;;;;8.67;6.80;;;;;;;;;;4914392;29;20238;-89
2022/01/12 13:35:35;;;;;;;9.30;7.50;;;;;;;;;;4916056;29;20243;-89
2022/01/12 13:38:04;;;;;;;8.87;6.93;;;;;;;;;;4917209;29;20227;-89
2022/01/12 13:40:36;;;;;;;10.47;6.67;;;;;;;;;;4917783;29;20271;-89
2022/01/12 13:43:05;;;;;;;10.40;7.10;;;;;;;;;;4915185;29;20219;-89
2022/01/12 13:45:40;;;;;;;12.07;7.67;;;;;;;;;;4918031;29;20216;-89
2022/01/12 13:48:16;;;;;;;10.03;7.60;;;;;;;;;;4917100;29;20324;-89
2022/01/12 13:50:45;;;;;;;10.93;6.53;;;;;;;;;;4916538;29;20668;-89
2022/01/12 13:53:13;;;;;;;9.10;6.60;;;;;;;;;;4916892;29;20203;-88
2022/01/12 13:55:54;;;;;;;9.53;6.53;;;;;;;;;;4917252;29;20210;-89
2022/01/12 13:58:26;;;;;;;10.07;7.63;;;;;;;;;;4918100;29;20238;-88
2022/01/12 14:01:00;;;;;;;7.97;6.27;;;;;;;;;;4918807;29;20199;-87
2022/01/12 14:03:27;;;;;;;11.47;7.17;;;;;;;;;;4917434;29;20561;-88
2022/01/12 14:05:59;;;;;;;8.73;7.63;;;;;;;;;;4917134;29;20698;-88
2022/01/12 14:08:40;;;;;;;14.43;7.13;;;;;;;;;;4916941;29;20222;-87
2022/01/12 14:11:09;;;;;;;9.43;7.00;;;;;;;;;;4917140;29;20230;-88
2022/01/12 14:13:40;;;;;;;7.00;5.33;;;;;;;;;;4917176;29;20215;-90
2022/01/12 14:16:44;;;;;;;9.93;6.73;;;;;;;;;;4917229;29;20672;-88
2022/01/12 14:19:12;;;;;;;8.10;6.53;;;;;;;;;;4917162;29;20233;-89
2022/01/12 14:21:40;;;;;;;9.07;6.83;;;;;;;;;;4917315;29;20203;-89
2022/01/12 14:24:08;;;;;;;8.47;6.77;;;;;;;;;;4919984;29;20266;-89
2022/01/12 14:26:40;;;;;;;8.00;6.53;;;;;;;;;;4916272;29;20210;-90
2022/01/12 14:29:09;;;;;;;7.53;5.70;;;;;;;;;;4916759;29;20202;-89
2022/01/12 14:31:37;;;;;;;9.13;7.03;;;;;;;;;;4916689;29;20230;-89
2022/01/12 14:34:04;;;;;;;8.13;6.27;;;;;;;;;;4915838;29;20266;-89
2022/01/12 14:36:32;;;;;;;8.53;5.97;;;;;;;;;;4916573;29;20206;-89
2022/01/12 14:39:00;;;;;;;7.80;6.10;;;;;;;;;;4917623;29;20218;-93
2022/01/12 14:41:27;;;;;;;10.20;6.83;;;;;;;;;;4916317;29;20612;-88
2022/01/12 14:43:56;;;;;;;8.37;6.33;;;;;;;;;;4916483;29;20242;-90
2022/01/12 14:46:23;;;;;;;8.93;6.07;;;;;;;;;;4916318;29;20210;-89
2022/01/12 14:48:52;;;;;;;8.37;6.23;;;;;;;;;;4916610;29;20230;-89
2022/01/12 14:51:21;;;;;;;8.87;5.87;;;;;;;;;;4915935;29;20229;-89
2022/01/12 14:53:48;;;;;;;7.27;5.20;;;;;;;;;;4916726;29;20203;-88
2022/01/12 14:56:15;;;;;;;9.33;5.90;;;;;;;;;;4916698;29;20597;-88
2022/01/12 14:58:44;;;;;;;6.37;5.33;;;;;;;;;;4916108;29;20253;-89
2022/01/12 15:01:13;;;;;;;8.53;5.97;;;;;;;;;;4916167;29;20653;-89
2022/01/12 15:03:40;;;;;;;9.00;5.60;;;;;;;;;;4916166;29;20214;-89
2022/01/12 15:06:08;;;;;;;9.00;6.13;;;;;;;;;;4916413;29;20849;-88
2022/01/12 15:08:35;;;;;;;8.97;6.27;;;;;;;;;;4916135;29;20306;-90
2022/01/12 15:11:03;;;;;;;7.60;5.73;;;;;;;;;;4915586;29;20237;-88
2022/01/12 15:13:41;;;;;;;8.07;5.90;;;;;;;;;;4915794;29;20218;-89
2022/01/12 15:16:09;;;;;;;7.77;5.87;;;;;;;;;;4917550;29;20207;-90
2022/01/12 15:18:37;;;;;;;8.63;5.97;;;;;;;;;;4917435;29;20282;-91
2022/01/12 15:21:06;;;;;;;7.13;5.90;;;;;;;;;;4915841;29;20648;-88
2022/01/12 15:23:33;;;;;;;8.83;6.13;;;;;;;;;;4916115;29;20282;-88
2022/01/12 15:26:01;;;;;;;10.20;6.40;;;;;;;;;;4909475;29;20303;-89
2022/01/12 15:28:28;;;;;;;9.73;6.50;;;;;;;;;;4915725;29;20289;-89
2022/01/12 15:30:55;;;;;;;7.97;6.00;;;;;;;;;;4915727;29;20341;-89
2022/01/12 15:33:23;;;;;;;7.10;5.97;;;;;;;;;;4915822;29;20222;-88
2022/01/12 15:35:51;;;;;;;8.80;6.17;;;;;;;;;;4915880;29;20234;-90
2022/01/12 15:38:19;;;;;;;9.13;5.57;;;;;;;;;;4915556;29;20637;-88
2022/01/12 15:40:46;;;;;;;9.07;5.60;;;;;;;;;;4915602;29;20277;-89
2022/01/12 15:43:14;;;;;;;7.57;5.57;;;;;;;;;;4915518;29;20274;-88
2022/01/12 15:45:41;;;;;;;9.90;6.53;;;;;;;;;;4915163;29;20650;-90
2022/01/12 15:48:09;;;;;;;10.33;6.43;;;;;;;;;;4915962;29;20246;-88
2022/01/12 15:50:36;;;;;;;7.90;6.27;;;;;;;;;;4915551;29;20202;-88
2022/01/12 15:53:06;;;;;;;9.40;6.17;;;;;;;;;;4915639;29;20226;-88
2022/01/12 15:55:33;;;;;;;8.70;6.17;;;;;;;;;;4915853;29;20238;-89
2022/01/12 15:58:01;;;;;;;7.73;6.03;;;;;;;;;;4915701;29;20707;-89
2022/01/12 16:00:28;;;;;;;10.73;6.20;;;;;;;;;;4915414;29;20214;-89
2022/01/12 16:02:56;;;;;;;7.97;6.17;;;;;;;;;;4916287;29;20199;-88
2022/01/12 16:05:23;;;;;;;8.90;6.37;;;;;;;;;;4916072;29;20210;-89
2022/01/12 16:07:50;;;;;;;9.43;6.50;;;;;;;;;;4915701;29;20708;-89
2022/01/12 16:10:20;;;;;;;8.27;6.13;;;;;;;;;;4915691;29;20560;-89
2022/01/12 16:12:48;;;;;;;10.33;7.17;;;;;;;;;;4915168;29;20241;-89
2022/01/12 16:15:15;;;;;;;9.10;5.70;;;;;;;;;;4915811;29;20640;-88
2022/01/12 16:17:45;;;;;;;8.07;5.63;;;;;;;;;;4915927;29;20235;-88
2022/01/12 16:20:13;;;;;;;9.93;6.50;;;;;;;;;;4915871;29;20221;-89
2022/01/12 16:22:42;;;;;;;10.57;6.73;;;;;;;;;;4915679;29;20203;-89
2022/01/12 16:25:09;;;;;;;13.53;7.30;;;;;;;;;;4919257;29;20290;-88
2022/01/12 16:27:38;;;;;;;11.27;8.07;;;;;;;;;;4918878;29;20235;-88
2022/01/12 16:30:07;;;;;;;10.27;6.80;;;;;;;;;;4919230;29;20900;-88
2022/01/12 16:32:34;;;;;;;10.03;7.43;;;;;;;;;;4920021;29;20223;-89
2022/01/12 16:35:02;;;;;;;8.83;7.00;;;;;;;;;;4919991;29;20651;-90
2022/01/12 16:37:29;;;;;;;19.37;10.77;;;;;;;;;;4918940;29;20306;-89
2022/01/12 16:39:57;;;;;;;14.10;8.80;;;;;;;;;;4919155;29;20225;-90
2022/01/12 16:42:24;;;;;;;12.60;9.43;;;;;;;;;;4919880;29;20250;-90
2022/01/12 16:44:53;;;;;;;14.37;8.37;;;;;;;;;;4919487;29;20303;-90
2022/01/12 16:47:20;;;;;;;20.83;12.43;;;;;;;;;;4919051;29;20286;-90
2022/01/12 16:49:49;;;;;;;12.53;7.53;;;;;;;;;;4918995;29;20222;-91
2022/01/12 16:52:17;;;;;;;9.87;7.63;;;;;;;;;;4900132;29;20322;-92
2022/01/12 16:54:44;;;;;;;11.80;7.70;;;;;;;;;;4899842;29;20292;-90
2022/01/12 16:57:11;;;;;;;11.03;7.37;;;;;;;;;;4918212;29;20908;-90
2022/01/12 16:59:50;;;;;;;12.20;6.83;;;;;;;;;;4919177;29;20214;-90
2022/01/12 17:02:18;;;;;;;9.97;7.13;;;;;;;;;;4922381;29;20215;-91
2022/01/12 17:04:46;;;;;;;11.17;7.30;;;;;;;;;;4918732;29;20207;-89
2022/01/12 17:07:13;;;;;;;11.10;8.13;;;;;;;;;;4919021;29;20254;-89
2022/01/12 17:09:40;;;;;;;12.50;7.13;;;;;;;;;;4919468;29;20218;-89
2022/01/12 17:12:08;;;;;;;8.43;6.33;;;;;;;;;;4918337;29;20299;-90